Time;durP1;ratioP1;P1;durP2;ratioP2;P2;SDS_P1;SDS_P2;PMS_P1;PMS_P2;Temp;Humidity;BMP_temperature;BMP_pressure;BME280_temperature;BME280_humidity;BME280_pressure;Samples;Min_cycle;Max_cycle;Signal;HPM_P1;HPM_P2
2021/06/08 00:01:27;;;;;;;0.10;0.10;;;;;;;;;;5123522;28;20261;-65
2021/06/08 00:03:53;;;;;;;0.03;0.03;;;;;;;;;;5123992;28;20208;-64
2021/06/08 00:06:19;;;;;;;0.00;0.00;;;;;;;;;;5123448;28;20210;-64
2021/06/08 00:08:45;;;;;;;0.10;0.10;;;;;;;;;;5130068;28;20216;-65
2021/06/08 00:11:10;;;;;;;0.03;0.03;;;;;;;;;;5125989;28;20222;-64
2021/06/08 00:13:37;;;;;;;0.00;0.00;;;;;;;;;;5117366;28;20268;-64
2021/06/08 00:16:02;;;;;;;0.10;0.10;;;;;;;;;;5124034;28;20211;-64
2021/06/08 00:18:30;;;;;;;0.00;0.00;;;;;;;;;;5126309;28;20398;-65
2021/06/08 00:20:55;;;;;;;0.00;0.00;;;;;;;;;;5118722;28;20214;-64
2021/06/08 00:23:21;;;;;;;0.10;0.10;;;;;;;;;;5120766;28;20276;-65
2021/06/08 00:25:47;;;;;;;0.00;0.00;;;;;;;;;;5127300;28;20382;-64
2021/06/08 00:28:13;;;;;;;0.10;0.10;;;;;;;;;;5125451;27;20391;-65
2021/06/08 00:30:39;;;;;;;0.10;0.10;;;;;;;;;;5123097;28;20231;-64
2021/06/08 00:33:06;;;;;;;0.00;0.00;;;;;;;;;;5136504;27;20206;-64
2021/06/08 00:35:33;;;;;;;0.00;0.00;;;;;;;;;;5123590;28;20259;-65
2021/06/08 00:37:59;;;;;;;0.10;0.10;;;;;;;;;;5134831;27;20373;-65
2021/06/08 00:40:27;;;;;;;0.10;0.10;;;;;;;;;;5128045;27;20258;-65
2021/06/08 00:42:53;;;;;;;0.08;0.08;;;;;;;;;;5129645;27;20525;-65
2021/06/08 00:45:19;;;;;;;0.00;0.00;;;;;;;;;;5130636;27;20206;-64
2021/06/08 00:47:44;;;;;;;0.00;0.00;;;;;;;;;;5137454;27;20265;-66
2021/06/08 00:50:10;;;;;;;0.10;0.10;;;;;;;;;;5123587;28;20325;-65
2021/06/08 00:52:37;;;;;;;0.00;0.00;;;;;;;;;;5126885;28;20204;-65
2021/06/08 00:55:04;;;;;;;0.00;0.00;;;;;;;;;;5111661;28;20211;-65
2021/06/08 00:57:29;;;;;;;0.00;0.00;;;;;;;;;;5126767;28;20291;-66
2021/06/08 00:59:55;;;;;;;0.03;0.03;;;;;;;;;;5126259;28;20222;-64
2021/06/08 01:02:21;;;;;;;0.00;0.00;;;;;;;;;;5122836;28;20258;-64
2021/06/08 01:04:47;;;;;;;0.00;0.00;;;;;;;;;;5126044;28;20218;-64
2021/06/08 01:07:12;;;;;;;0.00;0.00;;;;;;;;;;5126184;28;20202;-64
2021/06/08 01:09:39;;;;;;;0.05;0.05;;;;;;;;;;5127138;27;20198;-65
2021/06/08 01:12:05;;;;;;;0.00;0.00;;;;;;;;;;5119307;28;20344;-65
2021/06/08 01:14:31;;;;;;;0.10;0.10;;;;;;;;;;5126503;28;20199;-65
2021/06/08 01:16:57;;;;;;;0.00;0.00;;;;;;;;;;5121100;28;20203;-64
2021/06/08 01:19:23;;;;;;;0.10;0.10;;;;;;;;;;5117226;28;20250;-64
2021/06/08 01:21:50;;;;;;;0.03;0.03;;;;;;;;;;5124926;28;20413;-65
2021/06/08 01:24:15;;;;;;;0.10;0.10;;;;;;;;;;5119974;28;20382;-64
2021/06/08 01:26:41;;;;;;;0.00;0.00;;;;;;;;;;5121220;28;20209;-64
2021/06/08 01:29:08;;;;;;;0.08;0.08;;;;;;;;;;5114546;28;20239;-65
2021/06/08 01:31:35;;;;;;;0.10;0.10;;;;;;;;;;5119677;28;20249;-65
2021/06/08 01:34:01;;;;;;;0.00;0.00;;;;;;;;;;5122502;28;20251;-64
2021/06/08 01:36:28;;;;;;;0.00;0.00;;;;;;;;;;5122845;28;20204;-65
2021/06/08 01:38:55;;;;;;;0.10;0.10;;;;;;;;;;5110878;28;20570;-64
2021/06/08 01:41:22;;;;;;;0.00;0.00;;;;;;;;;;5113089;28;20230;-64
2021/06/08 01:43:48;;;;;;;0.00;0.00;;;;;;;;;;5111730;28;20483;-64
2021/06/08 01:46:15;;;;;;;0.00;0.00;;;;;;;;;;5118929;28;20498;-64
2021/06/08 01:48:40;;;;;;;0.00;0.00;;;;;;;;;;5118081;28;20219;-64
2021/06/08 01:51:11;;;;;;;0.10;0.10;;;;;;;;;;5121789;28;20569;-64
2021/06/08 01:53:38;;;;;;;0.10;0.10;;;;;;;;;;5121659;27;20205;-65
2021/06/08 01:56:07;;;;;;;0.00;0.00;;;;;;;;;;5123944;27;20215;-64
2021/06/08 01:58:36;;;;;;;0.05;0.05;;;;;;;;;;5143064;27;20213;-64
2021/06/08 02:01:05;;;;;;;0.10;0.10;;;;;;;;;;5125086;27;20202;-64
2021/06/08 02:03:32;;;;;;;0.00;0.00;;;;;;;;;;5114375;28;20206;-64
2021/06/08 02:06:00;;;;;;;0.00;0.00;;;;;;;;;;5119669;28;20204;-64
2021/06/08 02:08:29;;;;;;;0.00;0.00;;;;;;;;;;5115358;28;20219;-64
2021/06/08 02:10:58;;;;;;;0.00;0.00;;;;;;;;;;5123243;28;20385;-65
2021/06/08 02:13:30;;;;;;;0.10;0.10;;;;;;;;;;5118232;28;20203;-64
2021/06/08 02:15:58;;;;;;;0.00;0.00;;;;;;;;;;5123044;28;20349;-64
2021/06/08 02:18:26;;;;;;;0.00;0.00;;;;;;;;;;5122578;28;20289;-66
2021/06/08 02:20:52;;;;;;;0.00;0.00;;;;;;;;;;5124594;28;20200;-65
2021/06/08 02:23:20;;;;;;;0.10;0.10;;;;;;;;;;5125373;28;20252;-65
2021/06/08 02:25:49;;;;;;;0.10;0.10;;;;;;;;;;5107761;28;20382;-65
2021/06/08 02:28:15;;;;;;;0.00;0.00;;;;;;;;;;5122361;28;20283;-65
2021/06/08 02:30:46;;;;;;;0.10;0.10;;;;;;;;;;5124894;28;20529;-65
2021/06/08 02:33:12;;;;;;;0.00;0.00;;;;;;;;;;5122721;28;20209;-65
2021/06/08 02:35:38;;;;;;;0.00;0.00;;;;;;;;;;5124889;28;20198;-65
2021/06/08 02:38:04;;;;;;;0.05;0.05;;;;;;;;;;5110731;28;20266;-64
2021/06/08 02:40:31;;;;;;;0.00;0.00;;;;;;;;;;5112665;28;20202;-65
2021/06/08 02:42:57;;;;;;;0.00;0.00;;;;;;;;;;5122836;28;20439;-64
2021/06/08 02:45:22;;;;;;;0.08;0.08;;;;;;;;;;5114127;28;20246;-64
2021/06/08 02:47:51;;;;;;;0.08;0.08;;;;;;;;;;5115089;28;20224;-64
2021/06/08 02:50:23;;;;;;;0.10;0.10;;;;;;;;;;5115982;28;20393;-64
2021/06/08 02:52:53;;;;;;;0.08;0.08;;;;;;;;;;5116776;28;20196;-64
2021/06/08 02:55:19;;;;;;;0.10;0.10;;;;;;;;;;5115060;28;20397;-64
2021/06/08 02:57:45;;;;;;;0.00;0.00;;;;;;;;;;5117328;28;20204;-64
2021/06/08 03:00:11;;;;;;;0.00;0.00;;;;;;;;;;5123404;28;20199;-63
2021/06/08 03:02:38;;;;;;;0.10;0.10;;;;;;;;;;5116234;28;20205;-64
2021/06/08 03:05:06;;;;;;;0.10;0.10;;;;;;;;;;5120891;28;20387;-64
2021/06/08 03:07:34;;;;;;;0.00;0.00;;;;;;;;;;5121990;28;20217;-64
2021/06/08 03:10:02;;;;;;;0.00;0.00;;;;;;;;;;5123018;28;20396;-64
2021/06/08 03:12:29;;;;;;;0.00;0.00;;;;;;;;;;5120142;28;20191;-63
2021/06/08 03:14:56;;;;;;;0.00;0.00;;;;;;;;;;5116552;28;20194;-65
2021/06/08 03:17:23;;;;;;;0.05;0.05;;;;;;;;;;5112640;27;20271;-64
2021/06/08 03:19:49;;;;;;;0.05;0.05;;;;;;;;;;5115733;28;20194;-64
2021/06/08 03:22:18;;;;;;;0.00;0.00;;;;;;;;;;5114400;28;20217;-66
2021/06/08 03:24:45;;;;;;;0.05;0.05;;;;;;;;;;5117503;28;20209;-65
2021/06/08 03:27:12;;;;;;;0.10;0.10;;;;;;;;;;5119127;28;20234;-64
2021/06/08 03:29:38;;;;;;;0.00;0.00;;;;;;;;;;5118979;28;20410;-65
2021/06/08 03:32:05;;;;;;;0.00;0.00;;;;;;;;;;5122935;28;20233;-64
2021/06/08 03:34:32;;;;;;;0.05;0.05;;;;;;;;;;5123909;28;20455;-64
2021/06/08 03:36:58;;;;;;;0.00;0.00;;;;;;;;;;5132155;27;20203;-64
2021/06/08 03:39:26;;;;;;;0.10;0.10;;;;;;;;;;5104833;28;20400;-64
2021/06/08 03:41:52;;;;;;;0.00;0.00;;;;;;;;;;5111993;28;20202;-64
2021/06/08 03:44:19;;;;;;;0.10;0.10;;;;;;;;;;5123900;28;20206;-66
2021/06/08 03:46:45;;;;;;;0.00;0.00;;;;;;;;;;5119162;28;20210;-63
2021/06/08 03:49:12;;;;;;;0.08;0.08;;;;;;;;;;5123696;28;20225;-66
2021/06/08 03:51:38;;;;;;;0.10;0.10;;;;;;;;;;5115910;28;20455;-64
2021/06/08 03:54:04;;;;;;;0.00;0.00;;;;;;;;;;5123813;28;20241;-64
2021/06/08 03:56:31;;;;;;;0.08;0.08;;;;;;;;;;5123640;28;20420;-66
2021/06/08 03:58:57;;;;;;;0.10;0.10;;;;;;;;;;5123638;28;20376;-63
2021/06/08 04:01:23;;;;;;;0.10;0.10;;;;;;;;;;5128977;28;20207;-64
2021/06/08 04:03:50;;;;;;;0.10;0.10;;;;;;;;;;5117029;28;20210;-63
2021/06/08 04:06:16;;;;;;;0.00;0.00;;;;;;;;;;5122757;28;20202;-64
2021/06/08 04:08:41;;;;;;;0.10;0.10;;;;;;;;;;5123576;28;20545;-64
2021/06/08 04:11:09;;;;;;;0.10;0.10;;;;;;;;;;5123705;28;20209;-64
2021/06/08 04:13:37;;;;;;;0.08;0.08;;;;;;;;;;5110774;28;20270;-64
2021/06/08 04:16:04;;;;;;;0.10;0.10;;;;;;;;;;5123146;28;20198;-64
2021/06/08 04:18:30;;;;;;;0.00;0.00;;;;;;;;;;5110463;28;20210;-64
2021/06/08 04:20:56;;;;;;;0.10;0.10;;;;;;;;;;5120636;28;20423;-64
2021/06/08 04:23:23;;;;;;;0.10;0.10;;;;;;;;;;5115116;28;20230;-65
2021/06/08 04:25:49;;;;;;;0.00;0.00;;;;;;;;;;5123756;28;20203;-66
2021/06/08 04:28:17;;;;;;;0.05;0.05;;;;;;;;;;5120132;28;20218;-64
2021/06/08 04:30:45;;;;;;;0.10;0.10;;;;;;;;;;5125286;28;20426;-64
2021/06/08 04:33:11;;;;;;;0.00;0.00;;;;;;;;;;5110193;28;20248;-64
2021/06/08 04:35:36;;;;;;;0.10;0.10;;;;;;;;;;5123257;28;20203;-65
2021/06/08 04:38:02;;;;;;;0.10;0.10;;;;;;;;;;5123319;28;20224;-65
2021/06/08 04:40:28;;;;;;;0.00;0.00;;;;;;;;;;5117170;28;20204;-66
2021/06/08 04:42:57;;;;;;;0.10;0.10;;;;;;;;;;5130746;28;20201;-65
2021/06/08 04:45:23;;;;;;;0.08;0.08;;;;;;;;;;5119552;28;20492;-64
2021/06/08 04:47:50;;;;;;;0.10;0.10;;;;;;;;;;5108233;28;20210;-65
2021/06/08 04:50:16;;;;;;;0.00;0.00;;;;;;;;;;5118199;28;20226;-65
2021/06/08 04:52:42;;;;;;;0.00;0.00;;;;;;;;;;5123525;28;20212;-64
2021/06/08 04:55:08;;;;;;;0.00;0.00;;;;;;;;;;5122010;28;20457;-65
2021/06/08 04:57:34;;;;;;;0.10;0.10;;;;;;;;;;5117509;28;20214;-64
2021/06/08 05:00:01;;;;;;;0.05;0.05;;;;;;;;;;5119698;28;20222;-63
2021/06/08 05:02:32;;;;;;;0.00;0.00;;;;;;;;;;5121715;28;20239;-64
2021/06/08 05:05:01;;;;;;;0.00;0.00;;;;;;;;;;5121297;28;20243;-64
2021/06/08 05:07:28;;;;;;;0.10;0.10;;;;;;;;;;5121044;28;20205;-64
2021/06/08 05:09:54;;;;;;;0.08;0.08;;;;;;;;;;5124963;28;20271;-65
2021/06/08 05:12:21;;;;;;;0.00;0.00;;;;;;;;;;5113156;28;20206;-65
2021/06/08 05:14:48;;;;;;;0.00;0.00;;;;;;;;;;5126424;28;20202;-65
2021/06/08 05:17:16;;;;;;;0.08;0.08;;;;;;;;;;5117506;27;20273;-65
2021/06/08 05:19:42;;;;;;;0.00;0.00;;;;;;;;;;5118851;28;20202;-65
2021/06/08 05:22:10;;;;;;;0.10;0.10;;;;;;;;;;5124463;27;20213;-65
2021/06/08 05:24:36;;;;;;;0.08;0.08;;;;;;;;;;5126558;28;20202;-65
2021/06/08 05:27:02;;;;;;;0.00;0.00;;;;;;;;;;5122861;28;20257;-65
2021/06/08 05:29:28;;;;;;;0.00;0.00;;;;;;;;;;5123433;28;20565;-65
2021/06/08 05:31:55;;;;;;;0.00;0.00;;;;;;;;;;5125113;28;20205;-66
2021/06/08 05:34:22;;;;;;;0.00;0.00;;;;;;;;;;5126225;28;20209;-65
2021/06/08 05:36:48;;;;;;;0.08;0.08;;;;;;;;;;5124910;27;20198;-66
2021/06/08 05:39:15;;;;;;;0.00;0.00;;;;;;;;;;5115700;28;20227;-65
2021/06/08 05:41:41;;;;;;;0.00;0.00;;;;;;;;;;5111832;27;20227;-64
2021/06/08 05:44:10;;;;;;;0.10;0.10;;;;;;;;;;5116969;28;20215;-66
2021/06/08 05:46:37;;;;;;;0.00;0.00;;;;;;;;;;5125392;28;20229;-66
2021/06/08 05:49:03;;;;;;;0.00;0.00;;;;;;;;;;5110288;28;20470;-63
2021/06/08 05:51:29;;;;;;;0.00;0.00;;;;;;;;;;5123822;28;20217;-64
2021/06/08 05:53:55;;;;;;;0.00;0.00;;;;;;;;;;5115376;28;20204;-65
2021/06/08 05:56:23;;;;;;;0.00;0.00;;;;;;;;;;5123596;28;20204;-64
2021/06/08 05:58:49;;;;;;;0.00;0.00;;;;;;;;;;5125716;28;20295;-64
2021/06/08 06:01:15;;;;;;;0.00;0.00;;;;;;;;;;5125512;28;20206;-65
2021/06/08 06:03:41;;;;;;;0.00;0.00;;;;;;;;;;5125231;28;20215;-65
2021/06/08 06:06:07;;;;;;;0.10;0.10;;;;;;;;;;5123106;28;20547;-65
2021/06/08 06:08:33;;;;;;;0.10;0.10;;;;;;;;;;5114931;28;20219;-65
2021/06/08 06:11:00;;;;;;;0.08;0.08;;;;;;;;;;5118414;28;20210;-64
2021/06/08 06:13:28;;;;;;;0.08;0.08;;;;;;;;;;5125523;28;20513;-66
2021/06/08 06:15:55;;;;;;;0.00;0.00;;;;;;;;;;5124770;27;20508;-64
2021/06/08 06:18:21;;;;;;;0.00;0.00;;;;;;;;;;5116099;28;20193;-65
2021/06/08 06:20:49;;;;;;;0.10;0.10;;;;;;;;;;5110680;28;20200;-65
2021/06/08 06:23:16;;;;;;;0.08;0.08;;;;;;;;;;5110991;28;20207;-64
2021/06/08 06:25:42;;;;;;;0.00;0.00;;;;;;;;;;5122758;27;20205;-64
2021/06/08 06:28:11;;;;;;;0.00;0.00;;;;;;;;;;5117372;27;20219;-64
2021/06/08 06:30:38;;;;;;;0.00;0.00;;;;;;;;;;5115378;28;20207;-63
2021/06/08 06:33:04;;;;;;;0.00;0.00;;;;;;;;;;5116156;28;20210;-64
2021/06/08 06:35:30;;;;;;;0.10;0.10;;;;;;;;;;5112192;27;20426;-64
2021/06/08 06:37:56;;;;;;;0.00;0.00;;;;;;;;;;5111149;27;20250;-64
2021/06/08 06:40:25;;;;;;;0.10;0.10;;;;;;;;;;5116067;28;20201;-63
2021/06/08 06:42:53;;;;;;;0.10;0.10;;;;;;;;;;5124845;28;20205;-63
2021/06/08 06:45:19;;;;;;;0.00;0.00;;;;;;;;;;5124866;28;20199;-65
2021/06/08 06:47:47;;;;;;;0.00;0.00;;;;;;;;;;5128151;27;20610;-65
2021/06/08 06:50:13;;;;;;;0.00;0.00;;;;;;;;;;5123743;28;20419;-63
2021/06/08 06:52:40;;;;;;;0.00;0.00;;;;;;;;;;5123783;28;20212;-63
2021/06/08 06:55:06;;;;;;;0.00;0.00;;;;;;;;;;5124303;28;20217;-65
2021/06/08 06:57:33;;;;;;;0.00;0.00;;;;;;;;;;5124332;28;20268;-64
2021/06/08 06:59:59;;;;;;;0.00;0.00;;;;;;;;;;5124289;28;20278;-64
2021/06/08 07:02:25;;;;;;;0.00;0.00;;;;;;;;;;5123656;27;20227;-64
2021/06/08 07:04:52;;;;;;;0.00;0.00;;;;;;;;;;5115388;27;20509;-64
2021/06/08 07:07:19;;;;;;;0.00;0.00;;;;;;;;;;5123963;28;20221;-64
2021/06/08 07:09:45;;;;;;;0.00;0.00;;;;;;;;;;5124325;28;20306;-63
2021/06/08 07:12:11;;;;;;;0.00;0.00;;;;;;;;;;5120954;28;20212;-64
2021/06/08 07:14:39;;;;;;;0.10;0.10;;;;;;;;;;5122265;27;20208;-64
2021/06/08 07:17:05;;;;;;;0.00;0.00;;;;;;;;;;5124191;28;20215;-65
2021/06/08 07:19:32;;;;;;;0.10;0.10;;;;;;;;;;5124349;27;20442;-65
2021/06/08 07:21:59;;;;;;;0.00;0.00;;;;;;;;;;5124721;28;20221;-64
2021/06/08 07:24:25;;;;;;;0.05;0.05;;;;;;;;;;5123651;27;20209;-64
2021/06/08 07:26:51;;;;;;;0.00;0.00;;;;;;;;;;5116492;27;20199;-64
2021/06/08 07:29:17;;;;;;;0.00;0.00;;;;;;;;;;5107760;28;20245;-63
2021/06/08 07:31:47;;;;;;;0.00;0.00;;;;;;;;;;5124716;27;20463;-65
2021/06/08 07:34:17;;;;;;;0.00;0.00;;;;;;;;;;5134001;27;20405;-64
2021/06/08 07:36:45;;;;;;;0.00;0.00;;;;;;;;;;5123995;28;20224;-64
2021/06/08 07:39:19;;;;;;;0.00;0.00;;;;;;;;;;5118591;28;20388;-64
2021/06/08 07:41:45;;;;;;;0.10;0.10;;;;;;;;;;5115214;28;20205;-65
2021/06/08 07:44:14;;;;;;;0.00;0.00;;;;;;;;;;5112152;28;20285;-65
2021/06/08 07:46:40;;;;;;;0.00;0.00;;;;;;;;;;5134348;28;20208;-63
2021/06/08 07:49:08;;;;;;;0.00;0.00;;;;;;;;;;5120955;28;20219;-65
2021/06/08 07:51:34;;;;;;;0.00;0.00;;;;;;;;;;5128903;28;20388;-65
2021/06/08 07:54:01;;;;;;;0.00;0.00;;;;;;;;;;5123353;28;20239;-64
2021/06/08 07:56:29;;;;;;;0.00;0.00;;;;;;;;;;5121457;28;20203;-64
2021/06/08 07:58:55;;;;;;;0.00;0.00;;;;;;;;;;5113231;28;20201;-64
2021/06/08 08:01:23;;;;;;;0.05;0.05;;;;;;;;;;5122256;28;20273;-63
2021/06/08 08:03:49;;;;;;;0.00;0.00;;;;;;;;;;5132250;28;20213;-64
2021/06/08 08:06:16;;;;;;;0.00;0.00;;;;;;;;;;5122381;28;20208;-66
2021/06/08 08:08:43;;;;;;;0.00;0.00;;;;;;;;;;5130862;28;20220;-68
2021/06/08 08:11:10;;;;;;;0.00;0.00;;;;;;;;;;5120795;28;20403;-68
2021/06/08 08:13:37;;;;;;;0.00;0.00;;;;;;;;;;5123681;28;20325;-68
2021/06/08 08:16:05;;;;;;;0.00;0.00;;;;;;;;;;5121767;28;20208;-67
2021/06/08 08:18:32;;;;;;;0.05;0.05;;;;;;;;;;5123606;28;20270;-67
2021/06/08 08:20:58;;;;;;;0.10;0.10;;;;;;;;;;5122926;28;20233;-67
2021/06/08 08:23:26;;;;;;;0.00;0.00;;;;;;;;;;5127556;28;20198;-68
2021/06/08 08:25:52;;;;;;;0.00;0.00;;;;;;;;;;5119094;28;20201;-67
2021/06/08 08:28:18;;;;;;;0.00;0.00;;;;;;;;;;5124828;28;20442;-67
2021/06/08 08:30:46;;;;;;;0.00;0.00;;;;;;;;;;5132720;28;20205;-67
2021/06/08 08:33:12;;;;;;;0.00;0.00;;;;;;;;;;5124009;28;20250;-67
2021/06/08 08:35:38;;;;;;;0.10;0.10;;;;;;;;;;5127070;28;20208;-67
2021/06/08 08:38:04;;;;;;;0.00;0.00;;;;;;;;;;5127317;27;20229;-66
2021/06/08 08:40:30;;;;;;;0.00;0.00;;;;;;;;;;5135924;27;20583;-68
2021/06/08 08:42:59;;;;;;;0.00;0.00;;;;;;;;;;5123069;28;20202;-68
2021/06/08 08:45:26;;;;;;;0.00;0.00;;;;;;;;;;5123356;28;20247;-67
2021/06/08 08:47:54;;;;;;;0.00;0.00;;;;;;;;;;5127986;27;20284;-67
2021/06/08 08:50:20;;;;;;;0.00;0.00;;;;;;;;;;5126723;28;20264;-68
2021/06/08 08:52:55;;;;;;;0.00;0.00;;;;;;;;;;5126721;28;20198;-67
2021/06/08 08:55:23;;;;;;;0.00;0.00;;;;;;;;;;5123167;28;20201;-67
2021/06/08 08:57:49;;;;;;;0.00;0.00;;;;;;;;;;5127021;27;20357;-67
2021/06/08 09:00:15;;;;;;;0.00;0.00;;;;;;;;;;5131461;27;20202;-68
2021/06/08 09:02:42;;;;;;;0.10;0.10;;;;;;;;;;5125947;28;20272;-66
2021/06/08 09:05:10;;;;;;;0.00;0.00;;;;;;;;;;5126269;28;20509;-67
2021/06/08 09:07:36;;;;;;;0.00;0.00;;;;;;;;;;5124207;28;20262;-67
2021/06/08 09:10:03;;;;;;;0.00;0.00;;;;;;;;;;5120672;28;20231;-66
2021/06/08 09:12:29;;;;;;;0.00;0.00;;;;;;;;;;5120773;28;20198;-66
2021/06/08 09:14:55;;;;;;;0.00;0.00;;;;;;;;;;5125488;28;20202;-67
2021/06/08 09:17:21;;;;;;;0.00;0.00;;;;;;;;;;5127906;27;20327;-68
2021/06/08 09:19:47;;;;;;;0.00;0.00;;;;;;;;;;5126293;28;20316;-67
2021/06/08 09:22:16;;;;;;;0.00;0.00;;;;;;;;;;5133486;27;20207;-69
2021/06/08 09:24:43;;;;;;;0.00;0.00;;;;;;;;;;5124679;27;20220;-66
2021/06/08 09:27:11;;;;;;;0.00;0.00;;;;;;;;;;5127676;27;20213;-66
2021/06/08 09:29:38;;;;;;;0.00;0.00;;;;;;;;;;5128399;27;20407;-68
2021/06/08 09:32:18;;;;;;;0.00;0.00;;;;;;;;;;5118091;28;20203;-64
2021/06/08 09:34:44;;;;;;;0.00;0.00;;;;;;;;;;5116361;28;20213;-65
2021/06/08 09:37:10;;;;;;;0.00;0.00;;;;;;;;;;5132743;27;20552;-67
2021/06/08 09:39:41;;;;;;;0.40;0.40;;;;;;;;;;5119261;28;20230;-66
2021/06/08 09:42:17;;;;;;;0.00;0.00;;;;;;;;;;5125599;28;20210;-67
2021/06/08 09:44:43;;;;;;;0.00;0.00;;;;;;;;;;5123750;27;20195;-67
2021/06/08 09:47:09;;;;;;;0.00;0.00;;;;;;;;;;5138010;27;20209;-67
2021/06/08 09:49:35;;;;;;;0.00;0.00;;;;;;;;;;5119614;28;20214;-67
2021/06/08 09:52:02;;;;;;;0.00;0.00;;;;;;;;;;5119642;28;20202;-66
2021/06/08 09:54:30;;;;;;;0.00;0.00;;;;;;;;;;5122842;27;20205;-66
2021/06/08 09:57:11;;;;;;;0.00;0.00;;;;;;;;;;5114730;28;20226;-69
2021/06/08 09:59:42;;;;;;;0.00;0.00;;;;;;;;;;5116787;28;20236;-66
2021/06/08 10:02:25;;;;;;;0.00;0.00;;;;;;;;;;5116505;28;20284;-66
2021/06/08 10:04:50;;;;;;;0.00;0.00;;;;;;;;;;5112432;27;20202;-67
2021/06/08 10:07:29;;;;;;;0.10;0.10;;;;;;;;;;5123825;27;20489;-67
2021/06/08 10:10:02;;;;;;;0.00;0.00;;;;;;;;;;5134960;27;20221;-69
2021/06/08 10:12:28;;;;;;;0.00;0.00;;;;;;;;;;5125899;27;20230;-66
2021/06/08 10:15:03;;;;;;;0.00;0.00;;;;;;;;;;5125471;28;20210;-67
2021/06/08 10:17:29;;;;;;;0.00;0.00;;;;;;;;;;5118313;28;20194;-67
2021/06/08 10:19:55;;;;;;;0.00;0.00;;;;;;;;;;5119526;28;20194;-68
2021/06/08 10:22:31;;;;;;;0.00;0.00;;;;;;;;;;5125237;27;20218;-68
2021/06/08 10:24:57;;;;;;;0.00;0.00;;;;;;;;;;5133284;27;20264;-66
2021/06/08 10:27:23;;;;;;;0.00;0.00;;;;;;;;;;5120482;28;20489;-67
2021/06/08 10:29:49;;;;;;;0.00;0.00;;;;;;;;;;5131235;27;20385;-65
2021/06/08 10:32:16;;;;;;;0.00;0.00;;;;;;;;;;5130942;27;20205;-67
2021/06/08 10:34:42;;;;;;;0.00;0.00;;;;;;;;;;5130462;27;20225;-68
2021/06/08 10:37:08;;;;;;;0.00;0.00;;;;;;;;;;5126395;28;20278;-66
2021/06/08 10:39:35;;;;;;;0.40;0.40;;;;;;;;;;5131151;27;20221;-66
2021/06/08 10:42:01;;;;;;;0.00;0.00;;;;;;;;;;5118387;27;20255;-64
2021/06/08 10:44:28;;;;;;;0.20;0.20;;;;;;;;;;5112527;28;20509;-70
2021/06/08 10:46:55;;;;;;;0.00;0.00;;;;;;;;;;5113993;28;20202;-67
2021/06/08 10:49:33;;;;;;;0.00;0.00;;;;;;;;;;5116690;28;20539;-68
2021/06/08 10:52:02;;;;;;;0.00;0.00;;;;;;;;;;5113284;27;20194;-67
2021/06/08 10:54:28;;;;;;;0.00;0.00;;;;;;;;;;5118189;28;20610;-67
2021/06/08 10:56:58;;;;;;;0.00;0.00;;;;;;;;;;5121947;28;20206;-66
2021/06/08 10:59:34;;;;;;;0.00;0.00;;;;;;;;;;5118747;27;20222;-63
2021/06/08 11:02:00;;;;;;;0.00;0.00;;;;;;;;;;5117129;28;20231;-62
2021/06/08 11:04:45;;;;;;;0.00;0.00;;;;;;;;;;5119617;28;20422;-64
2021/06/08 11:07:12;;;;;;;0.00;0.00;;;;;;;;;;5117190;28;20409;-63
2021/06/08 11:09:40;;;;;;;0.30;0.30;;;;;;;;;;5111525;28;20410;-63
2021/06/08 11:12:23;;;;;;;0.43;0.43;;;;;;;;;;5114549;28;20231;-65
2021/06/08 11:14:59;;;;;;;0.00;0.00;;;;;;;;;;5116153;27;20296;-63
2021/06/08 11:17:33;;;;;;;0.00;0.00;;;;;;;;;;5114687;28;20217;-62
2021/06/08 11:20:00;;;;;;;0.00;0.00;;;;;;;;;;5114847;28;20198;-63
2021/06/08 11:22:44;;;;;;;0.00;0.00;;;;;;;;;;5120128;28;20229;-63
2021/06/08 11:25:25;;;;;;;0.00;0.00;;;;;;;;;;5121522;27;20198;-64
2021/06/08 11:27:56;;;;;;;0.00;0.00;;;;;;;;;;5110351;28;20222;-67
2021/06/08 11:30:23;;;;;;;0.00;0.00;;;;;;;;;;5124069;28;20285;-67
2021/06/08 11:32:49;;;;;;;0.00;0.00;;;;;;;;;;5124211;28;20485;-67
2021/06/08 11:35:17;;;;;;;0.00;0.00;;;;;;;;;;5110128;28;20261;-65
2021/06/08 11:38:10;;;;;;;0.03;0.03;;;;;;;;;;5124022;28;20253;-65
2021/06/08 11:40:46;;;;;;;0.00;0.00;;;;;;;;;;5061951;27;20508;-63
2021/06/08 11:43:26;;;;;;;0.00;0.00;;;;;;;;;;5121264;28;20214;-63
2021/06/08 11:46:03;;;;;;;0.00;0.00;;;;;;;;;;5121428;28;20665;-64
2021/06/08 11:48:29;;;;;;;0.00;0.00;;;;;;;;;;5123868;28;20194;-64
2021/06/08 11:50:55;;;;;;;0.00;0.00;;;;;;;;;;5124000;28;20209;-65
2021/06/08 11:53:21;;;;;;;0.00;0.00;;;;;;;;;;5124994;28;20206;-64
2021/06/08 11:56:03;;;;;;;0.00;0.00;;;;;;;;;;5117793;28;20221;-66
2021/06/08 11:58:31;;;;;;;0.00;0.00;;;;;;;;;;5113373;28;20342;-65
2021/06/08 12:00:57;;;;;;;0.00;0.00;;;;;;;;;;5119084;28;20282;-64
2021/06/08 12:03:27;;;;;;;0.00;0.00;;;;;;;;;;5115780;28;20230;-63
2021/06/08 12:05:54;;;;;;;0.00;0.00;;;;;;;;;;5111760;28;20211;-62
2021/06/08 12:08:23;;;;;;;0.00;0.00;;;;;;;;;;5126000;28;20202;-65
2021/06/08 12:10:50;;;;;;;0.00;0.00;;;;;;;;;;5117000;28;20267;-67
2021/06/08 12:13:17;;;;;;;0.00;0.00;;;;;;;;;;5117185;28;20265;-66
2021/06/08 12:15:43;;;;;;;0.00;0.00;;;;;;;;;;5125004;28;20205;-64
2021/06/08 12:18:10;;;;;;;0.00;0.00;;;;;;;;;;5117302;28;20206;-63
2021/06/08 12:20:38;;;;;;;0.00;0.00;;;;;;;;;;5112869;27;20237;-65
2021/06/08 12:23:04;;;;;;;0.00;0.00;;;;;;;;;;5115079;28;20209;-64
2021/06/08 12:25:30;;;;;;;0.00;0.00;;;;;;;;;;5118272;27;20536;-63
2021/06/08 12:27:56;;;;;;;0.00;0.00;;;;;;;;;;5120856;28;20350;-64
2021/06/08 12:30:23;;;;;;;0.00;0.00;;;;;;;;;;5122924;27;20277;-65
2021/06/08 12:32:52;;;;;;;0.00;0.00;;;;;;;;;;5119739;28;20264;-64
2021/06/08 12:35:31;;;;;;;0.00;0.00;;;;;;;;;;5115554;28;20287;-66
2021/06/08 12:38:15;;;;;;;0.00;0.00;;;;;;;;;;5115042;28;20226;-65
2021/06/08 12:40:42;;;;;;;0.00;0.00;;;;;;;;;;5111794;28;20194;-65
2021/06/08 12:43:07;;;;;;;0.00;0.00;;;;;;;;;;5126520;28;20198;-65
2021/06/08 12:45:34;;;;;;;0.00;0.00;;;;;;;;;;5129862;27;20509;-65
2021/06/08 12:48:00;;;;;;;0.00;0.00;;;;;;;;;;5122697;28;20273;-64
2021/06/08 12:50:29;;;;;;;0.00;0.00;;;;;;;;;;5125049;28;20425;-64
2021/06/08 12:52:56;;;;;;;0.10;0.10;;;;;;;;;;5130579;27;20202;-65
2021/06/08 12:55:27;;;;;;;0.00;0.00;;;;;;;;;;5121708;28;20206;-68
2021/06/08 12:57:57;;;;;;;0.00;0.00;;;;;;;;;;5124176;28;20414;-67
2021/06/08 13:00:24;;;;;;;0.00;0.00;;;;;;;;;;5113227;28;20270;-68
2021/06/08 13:02:51;;;;;;;0.00;0.00;;;;;;;;;;5136940;27;20398;-67
2021/06/08 13:05:20;;;;;;;0.00;0.00;;;;;;;;;;5126878;28;20206;-68
2021/06/08 13:07:47;;;;;;;0.00;0.00;;;;;;;;;;5122110;28;20496;-66
2021/06/08 13:10:14;;;;;;;0.10;0.10;;;;;;;;;;5119018;27;20283;-67
2021/06/08 13:12:42;;;;;;;0.00;0.00;;;;;;;;;;5126924;27;20205;-67
2021/06/08 13:15:09;;;;;;;0.00;0.00;;;;;;;;;;5121945;27;20400;-67
2021/06/08 13:17:38;;;;;;;0.00;0.00;;;;;;;;;;5113805;28;20274;-67
2021/06/08 13:20:18;;;;;;;0.00;0.00;;;;;;;;;;5117068;28;20199;-67
2021/06/08 13:22:44;;;;;;;0.00;0.00;;;;;;;;;;5119930;28;20210;-67
2021/06/08 13:25:11;;;;;;;0.00;0.00;;;;;;;;;;5124136;27;20376;-67
2021/06/08 13:27:40;;;;;;;0.00;0.00;;;;;;;;;;5115649;28;20504;-66
2021/06/08 13:30:14;;;;;;;0.00;0.00;;;;;;;;;;5125599;28;20329;-68
2021/06/08 13:32:40;;;;;;;0.00;0.00;;;;;;;;;;5123527;28;20477;-67
2021/06/08 13:35:08;;;;;;;0.00;0.00;;;;;;;;;;5127388;27;20205;-66
2021/06/08 13:37:35;;;;;;;0.00;0.00;;;;;;;;;;5141864;27;20197;-67
2021/06/08 13:40:09;;;;;;;0.00;0.00;;;;;;;;;;5128986;27;20199;-67
2021/06/08 13:42:35;;;;;;;0.00;0.00;;;;;;;;;;5126055;28;20493;-68
2021/06/08 13:45:02;;;;;;;0.00;0.00;;;;;;;;;;5129853;27;20229;-68
2021/06/08 13:47:30;;;;;;;0.00;0.00;;;;;;;;;;5125796;28;20456;-68
2021/06/08 13:49:57;;;;;;;0.20;0.20;;;;;;;;;;5122825;28;20596;-67
2021/06/08 13:52:23;;;;;;;0.00;0.00;;;;;;;;;;5121194;28;20270;-67
2021/06/08 13:54:49;;;;;;;0.00;0.00;;;;;;;;;;5123991;27;20210;-68
2021/06/08 13:57:20;;;;;;;0.00;0.00;;;;;;;;;;5120543;28;20202;-68
2021/06/08 14:02:46;;;;;;;0.00;0.00;;;;;;;;;;5118257;28;20236;-67
2021/06/08 14:05:26;;;;;;;0.00;0.00;;;;;;;;;;5125635;28;20215;-68
2021/06/08 14:07:52;;;;;;;0.00;0.00;;;;;;;;;;5126789;27;20486;-67
2021/06/08 14:10:19;;;;;;;0.00;0.00;;;;;;;;;;5123431;28;20472;-67
2021/06/08 14:13:01;;;;;;;0.00;0.00;;;;;;;;;;5117464;28;20210;-68
2021/06/08 14:15:27;;;;;;;0.00;0.00;;;;;;;;;;5121641;28;20198;-68
2021/06/08 14:17:54;;;;;;;0.00;0.00;;;;;;;;;;5125543;28;20197;-67
2021/06/08 14:20:20;;;;;;;0.10;0.10;;;;;;;;;;5122716;28;20327;-68
2021/06/08 14:22:46;;;;;;;0.00;0.00;;;;;;;;;;5121994;27;20210;-67
2021/06/08 14:25:14;;;;;;;0.20;0.20;;;;;;;;;;5124886;27;20201;-66
2021/06/08 14:27:40;;;;;;;0.00;0.00;;;;;;;;;;5117167;28;20270;-66
2021/06/08 14:30:08;;;;;;;0.00;0.00;;;;;;;;;;5129486;27;20218;-67
2021/06/08 14:32:34;;;;;;;0.00;0.00;;;;;;;;;;5123639;28;20198;-67
2021/06/08 14:35:02;;;;;;;0.00;0.00;;;;;;;;;;5121117;28;20206;-67
2021/06/08 14:37:28;;;;;;;0.00;0.00;;;;;;;;;;5110028;28;20202;-66
2021/06/08 14:39:55;;;;;;;0.00;0.00;;;;;;;;;;5118484;27;20269;-66
2021/06/08 14:42:21;;;;;;;0.00;0.00;;;;;;;;;;5118621;27;20239;-67
2021/06/08 14:44:47;;;;;;;0.00;0.00;;;;;;;;;;5114501;28;20213;-63
2021/06/08 14:47:13;;;;;;;0.00;0.00;;;;;;;;;;5121334;28;20203;-66
2021/06/08 14:49:39;;;;;;;0.00;0.00;;;;;;;;;;5111359;28;20502;-62